HTDO

Dodoma Airport

Dodoma, Tanzania
METAR HTDO 231300Z 08007KT 9999 SCT025 FEW026CB 27/14 Q1017 NOSIG
Observed Flight Rules
May-23 @ 13:00 UTC (2 hours ago) Visual Flight Rules
Wind Visibility Clouds
80° at 7 knots 10,000+ meters
  • Scattered at 2,500' AGL
  • Few at 2,600' AGL
Temperatures Readings
Current 27°C / 81°F
Dewpoint 14°C / 57°F
Humidity 45%
Altimeter 30.03" Hg
Pressure 1017 hPa
Elevation 1120
METAR HTDO 231300Z 08007KT 9999 SCT025 FEW026CB 27/14 Q1017 NOSIG
Observed Flight Rules
May-23 @ 13:00 UTC
(2 hours ago)
VFR
Wind Visibility
80° at 7 knots 10,000+ meters
Clouds
  • Scattered at 2,500' AGL
  • Few at 2,600' AGL
Temperature Dewpoint
27°C / 81°F 14°C / 57°F
Humidity Altimeter Pressure
45% 30.03" Hg 1017 hPa